sensor_id;sensor_type;location;lat;lon;timestamp;pressure;altitude;pressure_sealevel;temperature;humidity
73105;BME280;61296;50.526;30.792;2024-01-11T00:07:48;99591.13;;;-4.42;100.00
73105;BME280;61296;50.526;30.792;2024-01-11T00:23:22;99575.53;;;-4.35;100.00
73105;BME280;61296;50.526;30.792;2024-01-11T00:39:02;99573.44;;;-4.43;100.00
73105;BME280;61296;50.526;30.792;2024-01-11T00:54:35;99481.84;;;-4.91;100.00
73105;BME280;61296;50.526;30.792;2024-01-11T01:10:08;99421.34;;;-5.12;100.00
73105;BME280;61296;50.526;30.792;2024-01-11T01:25:42;99493.28;;;-4.65;100.00
73105;BME280;61296;50.526;30.792;2024-01-11T01:41:15;99439.16;;;-4.77;100.00
73105;BME280;61296;50.526;30.792;2024-01-11T01:56:49;99393.19;;;-4.66;100.00
73105;BME280;61296;50.526;30.792;2024-01-11T02:12:26;99259.13;;;-5.10;100.00
73105;BME280;61296;50.526;30.792;2024-01-11T02:27:59;99319.03;;;-4.51;100.00
73105;BME280;61296;50.526;30.792;2024-01-11T02:43:32;99311.06;;;-4.32;100.00
73105;BME280;61296;50.526;30.792;2024-01-11T02:59:05;99206.22;;;-4.70;100.00
73105;BME280;61296;50.526;30.792;2024-01-11T03:14:38;99219.38;;;-4.45;100.00
73105;BME280;61296;50.526;30.792;2024-01-11T03:30:11;99157.47;;;-4.53;100.00
73105;BME280;61296;50.526;30.792;2024-01-11T03:45:45;99050.31;;;-4.93;100.00
73105;BME280;61296;50.526;30.792;2024-01-11T04:01:19;99146.84;;;-4.16;100.00
73105;BME280;61296;50.526;30.792;2024-01-11T04:16:53;99113.09;;;-4.22;100.00
73105;BME280;61296;50.526;30.792;2024-01-11T04:32:26;99105.28;;;-4.42;100.00
73105;BME280;61296;50.526;30.792;2024-01-11T04:48:01;98973.47;;;-5.26;100.00
73105;BME280;61296;50.526;30.792;2024-01-11T05:03:34;99103.59;;;-4.38;100.00
73105;BME280;61296;50.526;30.792;2024-01-11T05:19:07;99069.59;;;-4.43;100.00
73105;BME280;61296;50.526;30.792;2024-01-11T05:34:41;99036.88;;;-4.45;100.00
73105;BME280;61296;50.526;30.792;2024-01-11T05:50:14;99064.84;;;-4.51;100.00
73105;BME280;61296;50.526;30.792;2024-01-11T06:05:50;98920.34;;;-5.19;100.00
73105;BME280;61296;50.526;30.792;2024-01-11T06:21:23;99040.69;;;-4.51;100.00
73105;BME280;61296;50.526;30.792;2024-01-11T06:36:56;98960.03;;;-4.78;100.00
73105;BME280;61296;50.526;30.792;2024-01-11T06:52:29;98963.53;;;-4.59;100.00
73105;BME280;61296;50.526;30.792;2024-01-11T07:08:02;98965.84;;;-4.33;100.00
73105;BME280;61296;50.526;30.792;2024-01-11T07:23:35;98952.97;;;-4.18;100.00
73105;BME280;61296;50.526;30.792;2024-01-11T07:39:08;98873.63;;;-4.56;100.00
73105;BME280;61296;50.526;30.792;2024-01-11T07:54:41;98938.84;;;-4.04;100.00
73105;BME280;61296;50.526;30.792;2024-01-11T08:10:14;98881.34;;;-4.36;100.00
73105;BME280;61296;50.526;30.792;2024-01-11T08:25:47;98950.84;;;-3.83;100.00
73105;BME280;61296;50.526;30.792;2024-01-11T08:41:20;98822.47;;;-4.46;100.00
73105;BME280;61296;50.526;30.792;2024-01-11T08:56:53;98912.56;;;-3.61;100.00
73105;BME280;61296;50.526;30.792;2024-01-11T09:12:26;98829.22;;;-4.02;100.00
73105;BME280;61296;50.526;30.792;2024-01-11T09:27:59;98860.19;;;-3.64;100.00
73105;BME280;61296;50.526;30.792;2024-01-11T09:43:33;98760.97;;;-4.01;100.00
73105;BME280;61296;50.526;30.792;2024-01-11T09:59:08;98825.47;;;-3.60;100.00
73105;BME280;61296;50.526;30.792;2024-01-11T10:14:42;98802.38;;;-3.61;100.00
73105;BME280;61296;50.526;30.792;2024-01-11T10:30:17;98758.22;;;-3.46;100.00
73105;BME280;61296;50.526;30.792;2024-01-11T10:45:51;98741.13;;;-3.51;100.00
73105;BME280;61296;50.526;30.792;2024-01-11T11:01:26;98690.81;;;-3.72;100.00
73105;BME280;61296;50.526;30.792;2024-01-11T11:16:58;98651.00;;;-3.70;100.00
73105;BME280;61296;50.526;30.792;2024-01-11T11:32:38;98680.53;;;-3.34;100.00
73105;BME280;61296;50.526;30.792;2024-01-11T12:04:13;98630.06;;;-3.37;100.00
73105;BME280;61296;50.526;30.792;2024-01-11T12:19:46;98547.97;;;-3.66;100.00
73105;BME280;61296;50.526;30.792;2024-01-11T12:35:20;98579.38;;;-3.30;100.00
73105;BME280;61296;50.526;30.792;2024-01-11T12:50:53;98596.41;;;-3.12;100.00
73105;BME280;61296;50.526;30.792;2024-01-11T13:06:31;98587.75;;;-3.01;100.00
73105;BME280;61296;50.526;30.792;2024-01-11T13:22:05;98439.81;;;-4.02;100.00
73105;BME280;61296;50.526;30.792;2024-01-11T13:37:38;98536.69;;;-3.23;100.00
73105;BME280;61296;50.526;30.792;2024-01-11T13:53:11;98510.69;;;-3.36;100.00
73105;BME280;61296;50.526;30.792;2024-01-11T14:08:43;98468.13;;;-3.43;100.00
73105;BME280;61296;50.526;30.792;2024-01-11T14:24:16;98516.25;;;-3.02;100.00
73105;BME280;61296;50.526;30.792;2024-01-11T14:39:49;98513.53;;;-3.02;100.00
73105;BME280;61296;50.526;30.792;2024-01-11T14:55:22;98417.00;;;-3.52;100.00
73105;BME280;61296;50.526;30.792;2024-01-11T15:10:55;98437.78;;;-3.35;100.00
73105;BME280;61296;50.526;30.792;2024-01-11T15:26:28;98464.03;;;-3.01;100.00
73105;BME280;61296;50.526;30.792;2024-01-11T15:42:01;98449.97;;;-2.89;100.00
73105;BME280;61296;50.526;30.792;2024-01-11T15:57:35;98424.78;;;-2.93;100.00
73105;BME280;61296;50.526;30.792;2024-01-11T16:13:08;98438.91;;;-2.62;100.00
73105;BME280;61296;50.526;30.792;2024-01-11T16:28:41;98403.75;;;-2.91;100.00
73105;BME280;61296;50.526;30.792;2024-01-11T16:44:18;98363.06;;;-3.07;100.00
73105;BME280;61296;50.526;30.792;2024-01-11T16:59:51;98403.00;;;-2.57;100.00
73105;BME280;61296;50.526;30.792;2024-01-11T17:15:23;98421.53;;;-2.38;100.00
73105;BME280;61296;50.526;30.792;2024-01-11T17:30:58;98335.06;;;-2.97;100.00
73105;BME280;61296;50.526;30.792;2024-01-11T17:46:31;98401.41;;;-2.41;100.00
73105;BME280;61296;50.526;30.792;2024-01-11T18:02:04;98299.78;;;-2.96;100.00
73105;BME280;61296;50.526;30.792;2024-01-11T18:17:39;98366.09;;;-2.56;100.00
73105;BME280;61296;50.526;30.792;2024-01-11T18:33:16;98403.13;;;-2.10;100.00
73105;BME280;61296;50.526;30.792;2024-01-11T18:48:49;98405.47;;;-2.09;100.00
73105;BME280;61296;50.526;30.792;2024-01-11T19:04:22;98419.38;;;-1.81;100.00
73105;BME280;61296;50.526;30.792;2024-01-11T19:19:55;98413.88;;;-1.93;100.00
73105;BME280;61296;50.526;30.792;2024-01-11T19:35:29;98426.38;;;-1.88;100.00
73105;BME280;61296;50.526;30.792;2024-01-11T19:50:48;98394.75;;;-2.35;100.00
73105;BME280;61296;50.526;30.792;2024-01-11T20:06:21;98433.84;;;-2.20;100.00
73105;BME280;61296;50.526;30.792;2024-01-11T20:21:55;98585.75;;;-2.86;100.00
73105;BME280;61296;50.526;30.792;2024-01-11T20:37:28;98659.53;;;-4.04;100.00
73105;BME280;61296;50.526;30.792;2024-01-11T20:53:01;98675.75;;;-4.23;100.00
73105;BME280;61296;50.526;30.792;2024-01-11T21:08:36;98743.91;;;-4.52;85.70
73105;BME280;61296;50.526;30.792;2024-01-11T21:24:09;98827.53;;;-5.15;67.18
73105;BME280;61296;50.526;30.792;2024-01-11T21:39:42;98845.69;;;-5.97;57.73
73105;BME280;61296;50.526;30.792;2024-01-11T21:55:15;98866.25;;;-6.51;57.95
73105;BME280;61296;50.526;30.792;2024-01-11T22:10:48;98931.09;;;-6.69;60.81
73105;BME280;61296;50.526;30.792;2024-01-11T22:26:23;98884.13;;;-7.35;60.96
73105;BME280;61296;50.526;30.792;2024-01-11T22:41:56;99001.47;;;-7.69;61.24
73105;BME280;61296;50.526;30.792;2024-01-11T22:57:29;99006.25;;;-8.17;63.36
73105;BME280;61296;50.526;30.792;2024-01-11T23:13:02;99065.19;;;-8.28;64.78
73105;BME280;61296;50.526;30.792;2024-01-11T23:28:38;99053.03;;;-8.92;65.06
73105;BME280;61296;50.526;30.792;2024-01-11T23:44:11;99126.50;;;-9.01;66.58
73105;BME280;61296;50.526;30.792;2024-01-11T23:59:43;99157.03;;;-9.19;67.83
